createdAt,value
2018-03-06T00:02:27.690Z,81.30
2018-03-06T00:12:29.254Z,81.90
2018-03-06T00:22:31.557Z,82.30
2018-03-06T00:32:33.106Z,82.20
2018-03-06T00:42:34.680Z,81.70
2018-03-06T00:52:36.334Z,83.40
2018-03-06T01:02:37.930Z,83.10
2018-03-06T01:12:39.481Z,83.60
2018-03-06T01:22:41.211Z,83.70
2018-03-06T01:32:42.762Z,84.90
2018-03-06T01:42:44.308Z,85.00
2018-03-06T01:52:45.847Z,84.40
2018-03-06T02:02:47.351Z,83.80
2018-03-06T02:12:48.887Z,83.30
2018-03-06T02:22:51.140Z,82.10
2018-03-06T02:32:52.657Z,82.10
2018-03-06T02:42:54.181Z,82.00
2018-03-06T02:52:55.746Z,81.10
2018-03-06T03:02:57.290Z,82.60
2018-03-06T03:12:59.571Z,83.20
2018-03-06T03:23:01.093Z,83.00
2018-03-06T03:33:02.585Z,84.30
2018-03-06T03:43:04.121Z,84.90
2018-03-06T03:53:05.743Z,85.40
2018-03-06T04:03:07.293Z,85.60
2018-03-06T04:13:08.839Z,85.60
2018-03-06T04:23:10.349Z,85.80
2018-03-06T04:33:12.042Z,85.70
2018-03-06T04:43:13.589Z,85.80
2018-03-06T04:53:15.136Z,87.30
2018-03-06T05:03:16.705Z,87.00
2018-03-06T05:13:18.972Z,86.40
2018-03-06T05:23:20.560Z,86.40
2018-03-06T05:33:22.115Z,86.80
2018-03-06T05:43:24.397Z,88.70
2018-03-06T05:53:25.952Z,87.90
2018-03-06T06:03:27.572Z,87.80
2018-03-06T06:13:30.039Z,87.70
2018-03-06T06:23:31.600Z,87.70
2018-03-06T06:33:33.160Z,86.60
2018-03-06T06:43:36.907Z,83.20
2018-03-06T06:53:38.465Z,83.20
2018-03-06T07:03:40.065Z,81.70
2018-03-06T07:13:41.778Z,80.20
2018-03-06T07:23:43.312Z,78.30
2018-03-06T07:33:44.767Z,75.40
2018-03-06T07:43:46.261Z,74.10
2018-03-06T07:53:47.749Z,72.20
2018-03-06T08:03:49.267Z,70.40
2018-03-06T08:13:50.814Z,68.90
2018-03-06T08:23:54.166Z,63.50
2018-03-06T08:33:55.645Z,63.50
2018-03-06T08:43:57.894Z,62.70
2018-03-06T08:53:59.366Z,62.40
2018-03-06T09:04:01.585Z,63.70
2018-03-06T09:14:03.811Z,63.10
2018-03-06T09:24:06.126Z,61.10
2018-03-06T09:34:08.334Z,59.60
2018-03-06T09:44:10.608Z,59.50
2018-03-06T09:54:12.074Z,59.40
2018-03-06T10:04:13.534Z,56.80
2018-03-06T10:14:15.009Z,56.80
2018-03-06T10:24:16.507Z,56.30
2018-03-06T10:34:18.053Z,55.90
2018-03-06T10:44:20.352Z,55.30
2018-03-06T10:54:22.656Z,53.50
2018-03-06T11:04:24.242Z,52.80
2018-03-06T11:14:25.834Z,52.20
2018-03-06T11:24:27.346Z,51.20
2018-03-06T11:34:28.878Z,51.80
2018-03-06T11:44:31.201Z,52.50
2018-03-06T11:54:33.472Z,51.40
2018-03-06T12:04:35.017Z,51.30
2018-03-06T12:14:37.314Z,49.90
2018-03-06T12:24:38.837Z,49.80
2018-03-06T12:34:41.134Z,47.70
2018-03-06T12:44:42.689Z,47.60
2018-03-06T12:54:44.270Z,48.20
2018-03-06T13:04:46.571Z,46.90
2018-03-06T13:14:48.136Z,46.80
2018-03-06T13:24:49.718Z,46.20
2018-03-06T13:34:51.313Z,46.50
2018-03-06T13:44:52.904Z,45.60
2018-03-06T13:54:54.377Z,44.80
2018-03-06T14:04:55.931Z,45.90
2018-03-06T14:14:57.528Z,46.00
2018-03-06T14:24:59.077Z,44.80
2018-03-06T14:35:00.629Z,44.90
2018-03-06T14:45:02.192Z,44.60
2018-03-06T14:55:03.785Z,45.00
2018-03-06T15:05:05.249Z,45.30
2018-03-06T15:15:06.841Z,45.60
2018-03-06T15:25:08.466Z,45.60
2018-03-06T15:35:10.783Z,46.20
2018-03-06T15:45:13.085Z,47.70
2018-03-06T15:55:14.925Z,47.70
2018-03-06T16:05:16.425Z,48.70
2018-03-06T16:15:18.045Z,49.80
2018-03-06T16:25:19.518Z,50.90
2018-03-06T16:35:21.020Z,53.20
2018-03-06T16:45:22.620Z,53.70
2018-03-06T16:55:24.088Z,55.00
2018-03-06T17:05:25.534Z,56.10
2018-03-06T17:15:27.089Z,58.10
2018-03-06T17:25:28.979Z,59.90
2018-03-06T17:35:30.534Z,61.00
2018-03-06T17:45:32.076Z,61.30
2018-03-06T17:55:33.584Z,62.10
2018-03-06T18:05:35.042Z,62.60
2018-03-06T18:15:36.590Z,62.90
2018-03-06T18:25:38.170Z,62.90
2018-03-06T18:35:39.661Z,63.30
2018-03-06T18:45:41.196Z,64.30
2018-03-06T18:55:43.521Z,65.20
2018-03-06T19:26:53.061Z,64.80
2018-03-06T19:36:54.581Z,65.20
2018-03-06T19:46:56.148Z,65.40
2018-03-06T19:56:58.370Z,66.80
2018-03-06T20:06:59.965Z,66.80
2018-03-06T20:17:02.343Z,68.10
2018-03-06T20:27:04.564Z,69.20
2018-03-06T20:37:06.094Z,69.20
2018-03-06T20:47:14.255Z,68.70
2018-03-06T20:57:17.359Z,70.40
2018-03-06T21:07:18.868Z,70.30
2018-03-06T21:17:20.354Z,71.30
2018-03-06T21:27:21.993Z,71.60
2018-03-06T21:37:24.347Z,70.90
2018-03-06T21:47:26.206Z,70.90
2018-03-06T21:57:28.516Z,72.50
2018-03-06T22:07:30.134Z,72.30
2018-03-06T22:17:32.409Z,73.90
2018-03-06T22:27:34.019Z,73.90
2018-03-06T22:37:35.566Z,73.70
2018-03-06T22:47:37.117Z,73.70
2018-03-06T22:57:38.717Z,77.80
2018-03-06T23:07:40.298Z,79.90
2018-03-06T23:17:42.070Z,80.00
2018-03-06T23:27:43.764Z,79.50
2018-03-06T23:37:46.072Z,82.20
2018-03-06T23:47:48.341Z,83.40
2018-03-06T23:57:49.860Z,83.30
